Terminal Aerodrome Forecast
Issued by NWS San Angelo, TX

Home | Current Version | Previous Version | Text Only | Print | Product List | Glossary On
Versions: 1 2 3 4 5 6 7 8 9 10 11 12 13 14 15 16 17 18 19 20 21 22 23 24 25 26 27 28 29 30 31 32 33 34
000
FTUS44 KSJT 212329
TAFABI
TAF
KABI 212329Z 2200/2224 17014G20KT P6SM SCT090
     FM220300 16010KT P6SM BKN100
     FM221200 17011G17KT P6SM SCT025
     FM221800 19014G20KT P6SM BKN050=

USA.gov is the U.S. government's official web portal to all federal, state and local government web resources and services.